Time;durP1;ratioP1;P1;durP2;ratioP2;P2;SDS_P1;SDS_P2;PMS_P1;PMS_P2;Temp;Humidity;BMP_temperature;BMP_pressure;BME280_temperature;BME280_humidity;BME280_pressure;Samples;Min_cycle;Max_cycle;Signal;HPM_P1;HPM_P2
2023/05/10 00:01:21;;;;;;;5.50;4.30;;;;;;;11.47;35.82;100947.22;5063731;28;20765;-67
2023/05/10 00:03:49;;;;;;;4.70;3.50;;;;;;;11.42;35.87;100954.09;5067476;28;20274;-67
2023/05/10 00:06:17;;;;;;;7.47;3.93;;;;;;;11.38;35.57;100949.81;5069507;28;20225;-67
2023/05/10 00:08:46;;;;;;;5.73;3.83;;;;;;;11.34;35.74;100936.06;5069865;28;20201;-67
2023/05/10 00:11:14;;;;;;;5.40;3.57;;;;;;;11.34;35.83;100940.31;5067241;28;20735;-66
2023/05/10 00:13:42;;;;;;;10.03;3.90;;;;;;;11.33;35.99;100936.03;5069130;28;20206;-66
2023/05/10 00:16:09;;;;;;;4.77;3.67;;;;;;;11.30;36.16;100934.34;5066569;28;20205;-68
2023/05/10 00:18:39;;;;;;;10.23;3.60;;;;;;;11.31;36.18;100935.19;5065549;28;20614;-67
2023/05/10 00:21:07;;;;;;;5.60;3.50;;;;;;;11.32;36.46;100939.47;5063704;28;20586;-68
2023/05/10 00:23:35;;;;;;;5.50;3.20;;;;;;;11.26;36.16;100927.44;5069640;28;20287;-67
2023/05/10 00:26:03;;;;;;;8.67;3.53;;;;;;;11.25;36.06;100930.03;5068197;28;20246;-66
2023/05/10 00:28:31;;;;;;;8.27;3.77;;;;;;;11.19;36.19;100936.03;5068642;28;20197;-66
2023/05/10 00:30:59;;;;;;;6.10;3.37;;;;;;;11.08;36.15;100923.16;5062156;28;20221;-66
2023/05/10 00:33:26;;;;;;;6.47;3.90;;;;;;;11.07;36.41;100925.72;5060265;28;20614;-67
2023/05/10 00:35:56;;;;;;;6.97;3.50;;;;;;;11.04;36.44;100920.56;5069151;28;20232;-66
2023/05/10 00:38:24;;;;;;;5.77;3.50;;;;;;;11.04;36.77;100915.41;5067601;28;20205;-66
2023/05/10 00:40:52;;;;;;;6.03;3.47;;;;;;;11.03;35.99;100922.28;5069133;28;20201;-69
2023/05/10 00:43:20;;;;;;;6.80;3.67;;;;;;;10.99;36.25;100919.69;5068693;28;20708;-67
2023/05/10 00:45:48;;;;;;;7.53;3.30;;;;;;;10.97;36.23;100914.56;5068970;28;20190;-64
2023/05/10 00:48:16;;;;;;;7.63;3.23;;;;;;;10.97;35.92;100914.56;5067460;28;20591;-65
2023/05/10 00:50:44;;;;;;;5.70;2.97;;;;;;;10.95;36.42;100915.41;5068150;28;20197;-67
2023/05/10 00:53:13;;;;;;;5.80;3.50;;;;;;;10.96;36.44;100912.81;5069431;28;20259;-66
2023/05/10 00:55:42;;;;;;;4.90;3.67;;;;;;;10.93;36.42;100917.97;5070361;28;20216;-66
2023/05/10 00:58:10;;;;;;;5.00;3.80;;;;;;;10.89;36.53;100916.25;5069215;28;20546;-66
2023/05/10 01:00:38;;;;;;;5.87;3.63;;;;;;;10.86;36.27;100918.81;5069469;28;20233;-66
2023/05/10 01:03:06;;;;;;;3.63;3.00;;;;;;;10.85;35.93;100912.81;5068909;28;20274;-66
2023/05/10 01:05:34;;;;;;;5.37;3.57;;;;;;;10.83;36.52;100911.09;5066232;28;20205;-66
2023/05/10 01:08:03;;;;;;;5.30;3.53;;;;;;;10.84;36.01;100912.81;5060076;28;20209;-66
2023/05/10 01:10:32;;;;;;;5.97;3.27;;;;;;;10.82;36.42;100911.94;5060743;28;20210;-67
2023/05/10 01:13:01;;;;;;;8.93;3.17;;;;;;;10.81;35.73;100902.50;5055318;28;20193;-68
2023/05/10 01:15:29;;;;;;;3.70;3.20;;;;;;;10.77;35.93;100904.19;5053607;28;20221;-66
2023/05/10 01:17:57;;;;;;;6.57;3.27;;;;;;;10.72;36.32;100908.50;5054958;28;21298;-68
2023/05/10 01:20:26;;;;;;;4.90;3.00;;;;;;;10.72;35.77;100905.06;5054615;28;20569;-69
2023/05/10 01:23:15;;;;;;;5.43;4.13;;;;;;;10.69;36.27;100899.91;5049258;28;20867;-67
2023/05/10 01:26:12;;;;;;;4.07;3.07;;;;;;;10.67;35.95;100909.34;5058001;28;20603;-69
2023/05/10 01:29:02;;;;;;;7.00;3.50;;;;;;;10.64;35.85;100900.75;5052509;28;20263;-66
2023/05/10 01:31:43;;;;;;;4.70;3.70;;;;;;;10.61;35.92;100905.91;5055313;28;21053;-66
2023/05/10 01:34:18;;;;;;;3.73;3.03;;;;;;;10.56;36.58;100901.59;5051412;28;20223;-67
2023/05/10 01:36:52;;;;;;;3.90;3.40;;;;;;;10.53;36.86;100902.47;5056659;28;20592;-68
2023/05/10 01:39:26;;;;;;;8.50;3.20;;;;;;;10.51;36.52;100909.31;5050387;28;20217;-66
2023/05/10 01:42:02;;;;;;;4.23;3.27;;;;;;;10.45;36.42;100900.69;5056853;28;20217;-68
2023/05/10 01:44:35;;;;;;;4.80;3.03;;;;;;;10.43;36.56;100897.28;5056192;28;20216;-70
2023/05/10 01:47:08;;;;;;;6.93;3.40;;;;;;;10.38;36.93;100900.69;5051452;28;20612;-67
2023/05/10 01:49:42;;;;;;;4.80;3.70;;;;;;;10.36;37.25;100894.66;5053925;28;20274;-67
2023/05/10 01:52:13;;;;;;;4.60;3.23;;;;;;;10.35;36.44;100892.09;5054892;28;20288;-66
2023/05/10 01:54:47;;;;;;;5.77;3.40;;;;;;;10.30;36.80;100894.63;5053240;28;20674;-66
2023/05/10 01:57:17;;;;;;;6.67;3.70;;;;;;;10.28;37.10;100890.34;5052722;28;20291;-69
2023/05/10 01:59:48;;;;;;;8.63;3.70;;;;;;;10.27;37.37;100889.50;5053547;28;20629;-68
2023/05/10 02:02:19;;;;;;;5.67;3.43;;;;;;;10.26;37.18;100886.91;5053983;28;20225;-68
2023/05/10 02:04:51;;;;;;;5.27;3.57;;;;;;;10.23;37.61;100884.28;5059937;28;20656;-67
2023/05/10 02:07:21;;;;;;;4.27;3.43;;;;;;;10.23;37.29;100877.41;5054085;28;20278;-68
2023/05/10 02:09:49;;;;;;;4.23;3.43;;;;;;;10.21;37.63;100879.13;5052179;28;20217;-66
2023/05/10 02:12:18;;;;;;;5.57;3.60;;;;;;;10.17;37.72;100877.41;5055821;28;20201;-67
2023/05/10 02:14:48;;;;;;;5.53;3.27;;;;;;;10.15;37.30;100877.38;5055930;28;20209;-66
2023/05/10 02:17:17;;;;;;;5.10;3.20;;;;;;;10.12;37.60;100885.09;5050705;28;20711;-68
2023/05/10 02:19:47;;;;;;;4.97;3.47;;;;;;;10.10;38.07;100881.66;5050847;28;20659;-68
2023/05/10 02:22:19;;;;;;;6.33;3.50;;;;;;;10.10;38.40;100880.81;5052267;28;20253;-68
2023/05/10 02:24:48;;;;;;;5.30;3.80;;;;;;;10.07;38.22;100876.50;5055344;28;20208;-67
2023/05/10 02:27:18;;;;;;;5.07;3.10;;;;;;;10.07;38.49;100879.09;5054109;28;20504;-66
2023/05/10 02:29:47;;;;;;;9.07;3.60;;;;;;;10.05;38.46;100870.50;5052254;28;20198;-67
2023/05/10 02:32:17;;;;;;;6.57;3.70;;;;;;;10.00;39.07;100877.34;5053214;28;20664;-67
2023/05/10 02:34:51;;;;;;;3.67;3.27;;;;;;;9.95;38.95;100878.19;5053413;28;20205;-66
2023/05/10 02:37:22;;;;;;;4.23;3.07;;;;;;;9.92;39.18;100881.59;5054625;28;20263;-65
2023/05/10 02:39:52;;;;;;;5.23;3.40;;;;;;;9.84;39.17;100867.84;5055668;28;20770;-67
2023/05/10 02:42:26;;;;;;;4.77;3.47;;;;;;;9.80;39.25;100891.84;5057096;28;20376;-68
2023/05/10 02:44:57;;;;;;;5.63;3.23;;;;;;;9.77;39.20;100882.38;5052793;28;20644;-68
2023/05/10 02:47:25;;;;;;;6.10;3.77;;;;;;;9.74;39.17;100877.22;5051922;28;20320;-67
2023/05/10 02:49:53;;;;;;;4.53;3.37;;;;;;;9.73;39.50;100878.06;5051077;28;20302;-67
2023/05/10 02:52:27;;;;;;;5.17;3.20;;;;;;;9.70;39.05;100890.06;5055576;28;20303;-66
2023/05/10 02:54:59;;;;;;;4.67;3.60;;;;;;;9.71;40.18;100881.47;5053059;28;20205;-67
2023/05/10 02:57:31;;;;;;;6.73;3.63;;;;;;;9.67;39.15;100878.88;5054016;28;20210;-66
2023/05/10 03:00:00;;;;;;;5.80;3.53;;;;;;;9.70;39.00;100890.06;5049636;28;20202;-67
2023/05/10 03:02:27;;;;;;;7.27;3.50;;;;;;;9.66;39.78;100882.31;5053749;28;20656;-66
2023/05/10 03:04:55;;;;;;;4.03;3.13;;;;;;;9.64;39.43;100886.59;5052597;28;20217;-67
2023/05/10 03:07:25;;;;;;;5.23;3.00;;;;;;;9.59;39.86;100879.72;5049449;28;20683;-66
2023/05/10 03:09:53;;;;;;;6.73;3.80;;;;;;;9.54;40.04;100896.84;5053095;28;20200;-66
2023/05/10 03:12:32;;;;;;;7.13;3.60;;;;;;;9.52;40.31;100890.81;5053735;28;20262;-66
2023/05/10 03:15:07;;;;;;;5.37;3.47;;;;;;;9.50;40.39;100887.34;5056633;28;20375;-68
2023/05/10 03:17:42;;;;;;;4.20;3.00;;;;;;;9.43;40.58;100886.47;5051825;28;20385;-66
2023/05/10 03:20:12;;;;;;;5.73;3.30;;;;;;;9.42;40.18;100885.59;5049698;28;20212;-66
2023/05/10 03:22:48;;;;;;;5.07;3.50;;;;;;;9.41;40.56;100889.03;5048424;28;20233;-67
2023/05/10 03:25:17;;;;;;;7.27;3.37;;;;;;;9.40;40.41;100876.16;5049110;28;20234;-65
2023/05/10 03:27:46;;;;;;;6.33;3.33;;;;;;;9.46;40.15;100881.31;5051001;28;20205;-66
2023/05/10 03:30:15;;;;;;;4.63;3.33;;;;;;;9.47;41.11;100885.66;5047908;28;20209;-67
2023/05/10 03:32:43;;;;;;;4.57;3.03;;;;;;;9.52;40.43;100891.66;5051246;28;20204;-67
2023/05/10 03:35:13;;;;;;;5.17;3.33;;;;;;;9.51;40.80;100879.66;5052807;28;20210;-66
2023/05/10 03:37:42;;;;;;;6.80;3.23;;;;;;;9.50;39.82;100888.25;5054362;28;20937;-66
2023/05/10 03:40:10;;;;;;;4.83;2.83;;;;;;;9.50;40.62;100883.09;5052156;28;20294;-66
2023/05/10 03:42:38;;;;;;;5.57;3.67;;;;;;;9.54;40.28;100889.13;5050434;28;20210;-68
2023/05/10 03:45:07;;;;;;;6.10;3.60;;;;;;;9.54;40.46;100884.84;5054146;28;20618;-65
2023/05/10 03:47:35;;;;;;;5.33;3.27;;;;;;;9.55;40.28;100886.53;5048694;28;20232;-68
2023/05/10 03:50:03;;;;;;;5.40;3.57;;;;;;;9.62;39.92;100883.16;5053284;28;20216;-67
2023/05/10 03:52:31;;;;;;;7.87;3.13;;;;;;;9.64;40.13;100888.31;5047237;28;20224;-67
2023/05/10 03:55:02;;;;;;;6.70;3.57;;;;;;;9.66;40.29;100884.03;5050997;28;20278;-66
2023/05/10 03:57:30;;;;;;;5.07;3.37;;;;;;;9.65;39.90;100877.19;5053795;28;20753;-67
2023/05/10 04:00:00;;;;;;;4.03;3.33;;;;;;;9.63;40.54;100879.72;5055315;28;20292;-67
2023/05/10 04:02:29;;;;;;;6.27;3.10;;;;;;;9.64;40.35;100880.59;5052190;28;20217;-66
2023/05/10 04:04:58;;;;;;;11.97;3.77;;;;;;;9.66;39.96;100884.91;5047989;28;20220;-67
2023/05/10 04:07:25;;;;;;;6.40;3.10;;;;;;;9.66;40.39;100882.31;5050659;28;20893;-68
2023/05/10 04:09:53;;;;;;;5.27;3.23;;;;;;;9.72;40.04;100881.50;5053867;28;20201;-67
2023/05/10 04:12:23;;;;;;;6.30;3.60;;;;;;;9.77;40.37;100881.53;5052728;28;20624;-68
2023/05/10 04:14:50;;;;;;;7.23;3.40;;;;;;;9.84;39.77;100879.00;5055696;28;20208;-67
2023/05/10 04:17:18;;;;;;;3.27;2.77;;;;;;;9.90;40.40;100878.13;5054520;28;20598;-69
2023/05/10 04:19:47;;;;;;;5.93;3.17;;;;;;;9.98;39.98;100886.78;5049989;28;20217;-66
2023/05/10 04:22:14;;;;;;;5.23;3.33;;;;;;;10.01;39.49;100884.19;5050477;28;20202;-66
2023/05/10 04:24:42;;;;;;;5.63;3.47;;;;;;;10.03;40.22;100887.66;5050407;28;20757;-66
2023/05/10 04:27:11;;;;;;;7.40;3.70;;;;;;;10.10;39.71;100886.81;5054970;28;20658;-66
2023/05/10 04:29:41;;;;;;;6.50;3.77;;;;;;;10.19;40.41;100890.28;5051975;28;20549;-65
2023/05/10 04:32:10;;;;;;;6.27;3.70;;;;;;;10.26;39.34;100890.34;5045926;28;20205;-67
2023/05/10 04:34:38;;;;;;;5.43;3.40;;;;;;;10.29;39.82;100892.06;5049345;28;20228;-65
2023/05/10 04:37:07;;;;;;;3.80;3.20;;;;;;;10.27;39.36;100894.66;5053227;28;20220;-66
2023/05/10 04:39:35;;;;;;;5.83;3.63;;;;;;;10.24;40.33;100888.59;5050224;28;20209;-66
2023/05/10 04:42:05;;;;;;;6.80;4.03;;;;;;;10.25;39.88;100895.47;5052301;28;20213;-67
2023/05/10 04:44:33;;;;;;;4.17;3.23;;;;;;;10.34;40.10;100895.50;5052904;28;20209;-68
2023/05/10 04:47:03;;;;;;;6.70;3.23;;;;;;;10.46;39.77;100895.56;5061544;28;21107;-69
2023/05/10 04:49:31;;;;;;;6.73;3.43;;;;;;;10.61;39.11;100890.44;5051589;28;20574;-67
2023/05/10 04:51:59;;;;;;;4.30;3.10;;;;;;;10.80;38.90;100890.47;5052393;28;20203;-67
2023/05/10 04:54:27;;;;;;;5.17;3.77;;;;;;;11.04;38.79;100898.19;5050702;28;20690;-67
2023/05/10 04:56:54;;;;;;;7.53;3.10;;;;;;;11.24;38.39;100890.47;5056751;28;20213;-67
2023/05/10 04:59:22;;;;;;;6.43;3.50;;;;;;;11.44;38.14;100894.75;5048009;28;20722;-64
2023/05/10 05:01:50;;;;;;;7.07;3.80;;;;;;;11.71;38.06;100892.13;5054868;28;20572;-67
2023/05/10 05:04:20;;;;;;;7.23;3.63;;;;;;;12.05;36.97;100890.31;5064628;28;20329;-67
2023/05/10 05:06:47;;;;;;;7.93;3.43;;;;;;;12.65;36.18;100883.97;5068251;28;20661;-69
2023/05/10 05:09:17;;;;;;;6.17;3.40;;;;;;;13.43;34.84;100888.53;5074663;28;20216;-66
2023/05/10 05:11:45;;;;;;;5.33;3.30;;;;;;;14.14;33.03;100883.41;5072039;28;20201;-68
2023/05/10 05:14:13;;;;;;;5.63;3.70;;;;;;;14.45;32.38;100887.31;5068235;28;20745;-67
2023/05/10 05:16:41;;;;;;;6.60;3.70;;;;;;;14.63;32.36;100880.19;5063885;28;20272;-67
2023/05/10 05:19:09;;;;;;;7.63;3.67;;;;;;;14.70;32.25;100887.84;5066638;28;20702;-70
2023/05/10 05:21:38;;;;;;;5.05;3.50;;;;;;;14.64;32.40;100885.34;5066421;28;20717;-70
2023/05/10 05:24:07;;;;;;;4.63;3.78;;;;;;;14.41;32.52;100877.88;5072213;28;20343;-67
2023/05/10 05:26:35;;;;;;;4.13;3.10;;;;;;;14.17;33.19;100883.38;5069458;28;20202;-69
2023/05/10 05:29:03;;;;;;;5.60;3.38;;;;;;;14.06;33.40;100875.72;5071179;28;20220;-69
2023/05/10 05:31:31;;;;;;;5.20;3.50;;;;;;;14.11;33.62;100888.66;5067393;28;20201;-70
2023/05/10 05:33:59;;;;;;;6.33;3.87;;;;;;;14.07;33.39;100882.66;5064438;28;20205;-69
2023/05/10 05:36:27;;;;;;;13.23;3.57;;;;;;;13.98;33.50;100875.81;5064870;28;20206;-67
2023/05/10 05:38:56;;;;;;;4.88;3.17;;;;;;;13.85;33.72;100887.22;5064142;28;20220;-67
2023/05/10 05:41:25;;;;;;;4.40;3.28;;;;;;;13.99;33.93;100881.84;5062774;28;20574;-70
2023/05/10 05:43:52;;;;;;;6.95;3.45;;;;;;;14.10;33.19;100892.97;5069124;28;20218;-70
2023/05/10 05:46:20;;;;;;;5.70;3.25;;;;;;;14.13;33.30;100884.28;5064765;28;20237;-69
2023/05/10 05:48:48;;;;;;;5.55;3.10;;;;;;;14.29;32.71;100880.63;5067921;28;20194;-68
2023/05/10 05:51:17;;;;;;;7.50;2.92;;;;;;;14.49;32.84;100890.72;5065251;28;20255;-69
2023/05/10 05:53:45;;;;;;;6.85;3.03;;;;;;;14.62;32.34;100887.13;5066987;28;20212;-68
2023/05/10 05:56:14;;;;;;;9.65;3.65;;;;;;;14.64;32.61;100885.34;5067117;28;20213;-67
2023/05/10 05:58:42;;;;;;;5.20;2.90;;;;;;;14.63;32.42;100894.00;5068849;28;20201;-70
2023/05/10 06:01:10;;;;;;;3.65;3.10;;;;;;;14.66;32.46;100890.53;5065625;28;20966;-70
2023/05/10 06:03:38;;;;;;;6.32;2.90;;;;;;;14.65;32.29;100894.81;5069088;28;20205;-68
2023/05/10 06:06:06;;;;;;;5.90;3.45;;;;;;;14.67;32.64;100893.06;5065532;28;20305;-68
2023/05/10 06:08:34;;;;;;;6.72;2.85;;;;;;;14.89;32.69;100896.22;5062696;28;20228;-69
2023/05/10 06:11:03;;;;;;;5.00;3.30;;;;;;;15.11;32.59;100895.88;5067148;28;20214;-68
2023/05/10 06:13:34;;;;;;;5.63;3.08;;;;;;;15.30;32.42;100893.81;5072469;28;20212;-68
2023/05/10 06:16:03;;;;;;;6.57;3.95;;;;;;;15.49;32.26;100896.94;5073333;28;20557;-70
2023/05/10 06:18:31;;;;;;;9.77;3.13;;;;;;;15.62;31.79;100898.44;5072509;28;20597;-70
2023/05/10 06:20:59;;;;;;;11.15;3.33;;;;;;;15.72;31.28;100899.97;5066216;28;20652;-70
2023/05/10 06:23:27;;;;;;;3.95;3.15;;;;;;;15.79;31.33;100888.59;5072909;28;20318;-69
2023/05/10 06:25:55;;;;;;;6.90;3.08;;;;;;;15.85;31.02;100882.44;5072931;28;20213;-67
2023/05/10 06:28:23;;;;;;;6.28;2.78;;;;;;;15.96;31.32;100890.00;5070820;28;20201;-67
2023/05/10 06:30:53;;;;;;;6.55;3.05;;;;;;;16.08;30.97;100887.16;5066220;28;20197;-69
2023/05/10 06:33:21;;;;;;;6.45;2.67;;;;;;;16.17;31.05;100890.44;5066137;28;20719;-68
2023/05/10 06:35:49;;;;;;;9.07;3.20;;;;;;;16.37;30.98;100886.53;5068469;28;20200;-68
2023/05/10 06:38:17;;;;;;;9.55;3.42;;;;;;;16.38;30.50;100890.84;5067963;28;20259;-67
2023/05/10 06:40:45;;;;;;;6.70;2.72;;;;;;;16.39;30.86;100885.63;5069632;28;20288;-68
2023/05/10 06:43:13;;;;;;;4.93;2.85;;;;;;;16.48;30.52;100881.94;5070226;28;20201;-67
2023/05/10 06:45:41;;;;;;;4.13;2.78;;;;;;;16.37;30.35;100884.78;5062848;28;20753;-68
2023/05/10 06:48:11;;;;;;;5.10;3.03;;;;;;;16.26;30.56;100876.34;5068461;28;20205;-69
2023/05/10 06:50:39;;;;;;;5.57;3.13;;;;;;;16.18;30.72;100896.47;5064711;28;20205;-69
2023/05/10 06:53:07;;;;;;;7.22;3.88;;;;;;;16.32;31.02;100873.63;5068106;28;20228;-70
2023/05/10 06:55:35;;;;;;;8.13;4.20;;;;;;;16.68;31.10;100884.09;5064668;28;20921;-68
2023/05/10 06:58:03;;;;;;;4.93;3.33;;;;;;;16.92;30.19;100876.63;5067029;28;20640;-70
2023/05/10 07:00:30;;;;;;;9.85;5.85;;;;;;;17.13;30.18;100876.94;5066700;28;20659;-70
2023/05/10 07:02:59;;;;;;;4.85;3.03;;;;;;;17.29;29.05;100872.19;5064905;28;20233;-72
2023/05/10 07:05:29;;;;;;;8.65;3.00;;;;;;;17.31;28.76;100875.63;5067574;28;20648;-70
2023/05/10 07:07:57;;;;;;;4.38;3.28;;;;;;;17.42;28.77;100879.72;5069512;28;20201;-72
2023/05/10 07:10:25;;;;;;;5.60;3.55;;;;;;;17.61;28.94;100873.09;5072344;28;20269;-70
2023/05/10 07:12:55;;;;;;;6.32;3.65;;;;;;;17.84;28.63;100872.47;5072363;28;20271;-73
2023/05/10 07:15:23;;;;;;;6.53;2.33;;;;;;;18.12;27.86;100879.53;5071587;28;20205;-73
2023/05/10 07:17:52;;;;;;;2.75;2.20;;;;;;;18.21;26.79;100869.66;5072400;28;20201;-72
2023/05/10 07:20:20;;;;;;;3.70;2.50;;;;;;;18.20;26.36;100861.88;5072524;28;20292;-72
2023/05/10 07:22:49;;;;;;;4.40;2.50;;;;;;;18.25;26.92;100862.59;5072366;28;20692;-72
2023/05/10 07:25:18;;;;;;;3.63;2.45;;;;;;;18.36;26.36;100868.34;5058445;28;20672;-73
2023/05/10 07:27:48;;;;;;;3.15;2.13;;;;;;;18.29;25.30;100861.59;5072433;28;20275;-74
2023/05/10 07:30:18;;;;;;;6.20;1.67;;;;;;;18.23;25.35;100862.66;5072071;28;20721;-75
2023/05/10 07:32:47;;;;;;;2.88;1.80;;;;;;;18.10;24.95;100867.38;5072131;28;20668;-76
2023/05/10 07:35:15;;;;;;;1.70;1.45;;;;;;;17.81;25.26;100873.41;5071504;28;20206;-72
2023/05/10 07:37:46;;;;;;;3.90;1.83;;;;;;;17.66;25.45;100883.38;5071846;28;20289;-70
2023/05/10 07:40:15;;;;;;;1.85;1.60;;;;;;;17.68;25.34;100874.63;5072395;28;20224;-70
2023/05/10 07:42:45;;;;;;;4.07;1.83;;;;;;;17.83;25.01;100868.19;5071788;28;20302;-74
2023/05/10 07:45:13;;;;;;;7.47;2.00;;;;;;;18.14;24.67;100870.75;5071717;28;20214;-72
2023/05/10 07:47:42;;;;;;;3.40;1.95;;;;;;;18.46;24.64;100863.69;5070358;28;20747;-71
2023/05/10 07:50:10;;;;;;;6.05;1.73;;;;;;;18.70;23.65;100843.78;5071118;28;20295;-66
2023/05/10 07:52:38;;;;;;;4.28;1.70;;;;;;;18.89;23.21;100868.44;5071616;28;20273;-67
2023/05/10 07:55:07;;;;;;;4.25;1.70;;;;;;;19.19;22.16;100869.19;5071351;28;20205;-69
2023/05/10 07:57:37;;;;;;;3.70;2.10;;;;;;;19.23;22.00;100859.47;5071126;28;20258;-71
2023/05/10 08:00:06;;;;;;;2.58;1.67;;;;;;;19.26;21.39;100857.63;5071399;28;20201;-69
2023/05/10 08:02:34;;;;;;;6.32;1.95;;;;;;;18.61;21.82;100863.22;5071657;28;20524;-70
2023/05/10 08:05:03;;;;;;;3.95;1.88;;;;;;;18.73;21.87;100855.00;5069078;28;20280;-69
2023/05/10 08:07:31;;;;;;;4.72;1.70;;;;;;;19.11;21.97;100849.41;5070708;28;20681;-72
2023/05/10 08:09:59;;;;;;;3.03;1.67;;;;;;;19.52;21.25;100858.47;5061761;28;20620;-70
2023/05/10 08:12:27;;;;;;;3.13;1.77;;;;;;;19.54;21.00;100860.09;5069389;28;20201;-70
2023/05/10 08:14:56;;;;;;;5.78;2.35;;;;;;;19.67;20.29;100847.47;5062614;28;20213;-74
2023/05/10 08:17:24;;;;;;;4.40;1.70;;;;;;;20.62;19.35;100856.97;5070323;28;20747;-66
2023/05/10 08:19:53;;;;;;;3.92;1.60;;;;;;;21.05;19.29;100847.31;5070846;28;20201;-67
2023/05/10 08:22:21;;;;;;;3.10;1.75;;;;;;;21.19;19.54;100847.59;5070589;28;20207;-64
2023/05/10 08:24:50;;;;;;;2.75;1.80;;;;;;;20.92;21.75;100847.00;5070050;28;20622;-65
2023/05/10 08:27:18;;;;;;;2.28;1.23;;;;;;;20.34;19.72;100843.22;5062026;28;20737;-64
2023/05/10 08:29:46;;;;;;;2.42;1.45;;;;;;;19.97;20.09;100855.09;5071024;28;20655;-66
2023/05/10 08:32:18;;;;;;;1.90;1.60;;;;;;;19.74;20.35;100843.72;5070801;28;20271;-66
2023/05/10 08:34:46;;;;;;;3.47;1.58;;;;;;;19.62;20.92;100838.94;5064895;28;20205;-67
2023/05/10 08:37:14;;;;;;;6.15;2.00;;;;;;;19.41;20.47;100842.31;5057388;28;20213;-65
2023/05/10 08:39:43;;;;;;;2.10;1.48;;;;;;;19.27;20.44;100848.84;5070982;28;20205;-67
2023/05/10 08:42:12;;;;;;;3.78;1.70;;;;;;;18.99;20.27;100845.47;5070823;28;20639;-65
2023/05/10 08:44:40;;;;;;;4.38;1.73;;;;;;;18.54;20.58;100844.28;5070586;28;20244;-64
2023/05/10 08:47:09;;;;;;;2.38;1.83;;;;;;;18.51;21.51;100846.13;5070386;28;20255;-64
2023/05/10 08:49:40;;;;;;;4.38;1.98;;;;;;;18.60;21.40;100856.28;5069835;28;20205;-64
2023/05/10 08:52:09;;;;;;;5.88;1.83;;;;;;;18.66;20.62;100843.03;5067308;28;20202;-64
2023/05/10 08:54:37;;;;;;;2.67;1.20;;;;;;;18.39;20.72;100854.34;5069403;28;20197;-65
2023/05/10 08:57:05;;;;;;;2.08;1.60;;;;;;;18.13;21.01;100848.16;5070648;28;20350;-64
2023/05/10 08:59:33;;;;;;;3.08;1.50;;;;;;;18.15;21.09;100848.97;5062764;28;20212;-67
2023/05/10 09:02:02;;;;;;;2.50;1.85;;;;;;;18.25;21.31;100847.78;5066811;28;20677;-67
2023/05/10 09:04:30;;;;;;;2.67;1.75;;;;;;;18.39;21.62;100841.31;5070681;28;20258;-66
2023/05/10 09:07:00;;;;;;;2.35;1.60;;;;;;;18.57;21.64;100833.75;5069641;28;20304;-64
2023/05/10 09:09:29;;;;;;;3.58;1.90;;;;;;;18.71;20.79;100832.50;5070268;28;20205;-66
2023/05/10 09:11:58;;;;;;;3.45;1.70;;;;;;;18.94;21.17;100834.34;5060323;28;20637;-63
2023/05/10 09:14:26;;;;;;;1.70;1.60;;;;;;;19.17;21.13;100829.16;5063194;28;20577;-62
2023/05/10 09:16:55;;;;;;;2.80;2.05;;;;;;;19.50;21.06;100826.28;5067461;28;20202;-63
2023/05/10 09:19:23;;;;;;;4.20;2.53;;;;;;;19.97;20.37;100823.72;5061328;28;20213;-64
2023/05/10 09:21:51;;;;;;;3.83;2.00;;;;;;;20.74;19.31;100817.16;5069979;28;20212;-62
2023/05/10 09:24:26;;;;;;;2.40;1.48;;;;;;;21.30;18.20;100813.03;5070194;28;20236;-62
2023/05/10 09:26:54;;;;;;;4.72;2.58;;;;;;;22.47;17.94;100803.31;5071356;28;20247;-61
2023/05/10 09:29:22;;;;;;;1.63;1.52;;;;;;;23.94;16.38;100808.88;5073710;28;20193;-62
2023/05/10 09:31:52;;;;;;;2.53;2.08;;;;;;;24.84;14.61;100802.91;5073235;28;20254;-63
2023/05/10 09:34:21;;;;;;;3.13;1.60;;;;;;;26.12;13.79;100817.09;5074304;28;20602;-62
2023/05/10 09:36:54;;;;;;;3.80;1.70;;;;;;;26.62;13.08;100818.25;5074004;28;20679;-62
2023/05/10 09:39:31;;;;;;;3.85;1.67;;;;;;;26.64;13.18;100806.63;5073065;28;20682;-64
2023/05/10 09:42:00;;;;;;;3.92;1.85;;;;;;;27.37;13.04;100814.03;5073111;28;20621;-65
2023/05/10 09:44:28;;;;;;;3.17;1.88;;;;;;;28.20;12.74;100804.63;5073661;28;20331;-63
2023/05/10 09:46:56;;;;;;;3.40;2.03;;;;;;;29.11;11.86;100797.78;5073416;28;20232;-63
2023/05/10 09:49:24;;;;;;;3.65;1.88;;;;;;;30.09;11.71;100797.13;5073708;28;20600;-61
2023/05/10 09:52:03;;;;;;;2.60;1.50;;;;;;;30.45;10.40;100803.06;5073848;28;20686;-61
2023/05/10 09:54:33;;;;;;;4.45;1.73;;;;;;;30.41;10.54;100806.94;5073412;28;20293;-63
2023/05/10 09:57:01;;;;;;;1.92;1.67;;;;;;;30.69;10.66;100790.38;5073332;28;20246;-62
2023/05/10 09:59:30;;;;;;;2.40;1.70;;;;;;;30.96;10.54;100802.34;5073573;28;20715;-63
2023/05/10 10:01:59;;;;;;;2.17;1.60;;;;;;;31.45;11.18;100788.34;5073710;28;20553;-63
2023/05/10 10:04:27;;;;;;;2.55;1.90;;;;;;;32.07;10.71;100783.72;5073240;28;20237;-61
2023/05/10 10:07:03;;;;;;;2.58;2.03;;;;;;;32.79;10.12;100776.28;5073446;28;20692;-62
2023/05/10 10:09:33;;;;;;;2.70;1.90;;;;;;;33.41;9.55;100785.53;5065348;28;20207;-62
2023/05/10 10:12:01;;;;;;;3.10;1.70;;;;;;;33.21;8.69;100790.09;5073327;28;20565;-63
2023/05/10 10:14:30;;;;;;;8.30;1.67;;;;;;;32.29;9.09;100782.59;5072972;28;20205;-60
2023/05/10 10:17:01;;;;;;;3.60;1.98;;;;;;;31.19;9.66;100774.59;5073227;28;20567;-63
2023/05/10 10:19:34;;;;;;;3.88;1.55;;;;;;;31.18;10.23;100769.38;5072809;28;20205;-63
2023/05/10 10:22:02;;;;;;;4.13;2.05;;;;;;;31.41;9.63;100768.28;5073246;28;20240;-63
2023/05/10 10:24:31;;;;;;;1.55;1.42;;;;;;;32.07;9.24;100786.38;5072663;28;20245;-63
2023/05/10 10:27:08;;;;;;;2.90;1.75;;;;;;;31.23;9.91;100778.69;5072702;28;20267;-62
2023/05/10 10:29:42;;;;;;;2.83;1.75;;;;;;;29.89;10.82;100780.13;5071858;28;20213;-62
2023/05/10 10:32:20;;;;;;;1.88;1.77;;;;;;;30.33;11.21;100765.03;5072976;28;20258;-62
2023/05/10 10:34:49;;;;;;;4.32;1.60;;;;;;;30.64;10.24;100766.00;5072446;28;20217;-62
2023/05/10 10:37:17;;;;;;;4.20;1.77;;;;;;;31.49;10.97;100756.94;5072495;28;20233;-62
2023/05/10 10:39:49;;;;;;;7.60;1.98;;;;;;;30.79;10.27;100759.41;5072522;28;20282;-61
2023/05/10 10:42:49;;;;;;;3.30;1.77;;;;;;;30.95;9.72;100766.06;5072397;28;20205;-61
2023/05/10 10:45:17;;;;;;;5.40;1.60;;;;;;;30.48;10.34;100761.09;5072763;28;20237;-64
2023/05/10 10:47:46;;;;;;;2.58;1.45;;;;;;;30.27;10.79;100758.44;5072373;28;20213;-63
2023/05/10 10:50:15;;;;;;;4.85;2.00;;;;;;;30.43;10.29;100759.81;5072445;28;20271;-62
2023/05/10 10:52:44;;;;;;;2.42;1.35;;;;;;;29.51;10.00;100746.00;5072532;28;20205;-64
2023/05/10 10:55:16;;;;;;;2.17;1.23;;;;;;;27.74;12.01;100757.63;5071861;28;20293;-65
2023/05/10 10:57:47;;;;;;;3.53;1.65;;;;;;;27.75;11.91;100757.53;5068911;28;20209;-62
2023/05/10 11:00:27;;;;;;;3.33;1.80;;;;;;;27.83;11.86;100739.28;5072470;28;20660;-61
2023/05/10 11:02:58;;;;;;;4.05;1.90;;;;;;;28.07;12.00;100743.75;5070749;28;20243;-61
2023/05/10 11:05:47;;;;;;;3.60;1.30;;;;;;;28.52;11.62;100743.97;5070014;28;20652;-61
2023/05/10 11:08:26;;;;;;;3.58;1.85;;;;;;;28.30;10.90;100748.19;5072385;28;20767;-62
2023/05/10 11:11:06;;;;;;;5.32;1.77;;;;;;;28.20;11.96;100744.53;5072051;28;20659;-61
2023/05/10 11:13:38;;;;;;;4.07;1.95;;;;;;;28.47;11.65;100751.44;5070499;28;20209;-61
2023/05/10 11:16:17;;;;;;;3.78;1.88;;;;;;;28.72;11.14;100750.38;5071974;28;20254;-61
2023/05/10 11:18:59;;;;;;;2.63;1.90;;;;;;;28.93;11.90;100737.28;5068441;28;20280;-61
2023/05/10 11:21:27;;;;;;;3.38;1.60;;;;;;;28.14;11.64;100742.34;5071503;28;20236;-61
2023/05/10 11:23:57;;;;;;;3.72;1.88;;;;;;;25.90;12.68;100743.69;5071773;28;20244;-62
2023/05/10 11:26:30;;;;;;;3.67;1.77;;;;;;;25.15;13.96;100738.66;5071519;28;20206;-62
2023/05/10 11:29:00;;;;;;;5.03;1.90;;;;;;;24.54;14.50;100748.41;5072167;28;20323;-62
2023/05/10 11:31:29;;;;;;;3.00;1.58;;;;;;;24.36;15.37;100738.91;5071491;28;20205;-61
2023/05/10 11:33:58;;;;;;;2.65;1.80;;;;;;;24.42;15.10;100741.25;5071433;28;20262;-63
2023/05/10 11:36:28;;;;;;;1.83;1.70;;;;;;;24.02;15.53;100726.84;5071537;28;20205;-62
2023/05/10 11:38:57;;;;;;;3.40;1.80;;;;;;;23.58;15.97;100736.25;5057764;28;20205;-60